Time;durP1;ratioP1;P1;durP2;ratioP2;P2;SDS_P1;SDS_P2;PMS_P1;PMS_P2;Temp;Humidity;BMP_temperature;BMP_pressure;BME280_temperature;BME280_humidity;BME280_pressure;Samples;Min_cycle;Max_cycle;Signal;HPM_P1;HPM_P2
2023/10/03 00:02:07;;;;;;;15.65;7.90;;;;;;;-145.68;51.04;73110.06;10404766;28;20221;-72
2023/10/03 00:07:08;;;;;;;15.45;7.00;;;;;;;-145.68;51.07;73118.03;10404427;28;20208;-72
2023/10/03 00:12:08;;;;;;;15.40;7.57;;;;;;;-145.68;51.33;73120.03;10404488;28;20255;-73
2023/10/03 00:17:09;;;;;;;17.05;7.85;;;;;;;-145.68;51.51;73114.03;10404431;28;20200;-73
2023/10/03 00:22:09;;;;;;;20.17;7.60;;;;;;;-145.68;51.33;73106.06;10404905;28;20208;-73
2023/10/03 00:27:10;;;;;;;18.67;7.38;;;;;;;-145.68;51.08;73088.06;10404014;28;20243;-72
2023/10/03 00:32:10;;;;;;;18.98;7.72;;;;;;;-145.68;50.89;73086.06;10404534;28;20193;-73
2023/10/03 00:37:11;;;;;;;18.02;8.02;;;;;;;-145.68;50.57;73076.06;10404605;28;20191;-73
2023/10/03 00:42:11;;;;;;;13.73;7.03;;;;;;;-145.68;50.41;73074.06;10403482;28;20576;-72
2023/10/03 00:47:12;;;;;;;14.60;6.68;;;;;;;-145.68;50.61;73084.06;10404100;28;20212;-73
2023/10/03 00:52:13;;;;;;;14.60;6.88;;;;;;;-145.68;49.97;73064.09;10404441;28;20192;-72
2023/10/03 00:57:15;;;;;;;14.48;6.95;;;;;;;-145.68;49.83;73062.09;10407245;28;20653;-72
2023/10/03 01:02:15;;;;;;;13.68;6.93;;;;;;;-145.68;49.73;73046.09;10380594;28;20220;-72
2023/10/03 01:07:16;;;;;;;15.02;8.25;;;;;;;-145.68;49.52;73034.09;10403354;28;20193;-73
2023/10/03 01:12:18;;;;;;;16.33;7.88;;;;;;;-145.68;49.38;73020.13;10385839;28;20180;-72
2023/10/03 01:17:20;;;;;;;16.38;6.45;;;;;;;-145.68;50.13;73048.09;10409268;28;20335;-73
2023/10/03 01:22:23;;;;;;;16.80;7.97;;;;;;;-145.68;49.95;73052.09;10410681;28;20220;-72
2023/10/03 01:27:26;;;;;;;14.27;7.05;;;;;;;-145.68;49.89;73038.09;10410270;28;20539;-72
2023/10/03 01:32:30;;;;;;;17.70;8.18;;;;;;;-145.68;49.24;73030.09;10410723;28;20181;-72
2023/10/03 01:37:30;;;;;;;12.98;6.68;;;;;;;-145.68;49.28;73044.09;10392512;28;20287;-73
2023/10/03 01:42:30;;;;;;;15.10;7.03;;;;;;;-145.68;48.71;73036.09;10408711;28;20572;-72
2023/10/03 01:47:31;;;;;;;13.45;6.53;;;;;;;-145.68;48.04;73018.13;10409208;28;20232;-72
2023/10/03 01:52:32;;;;;;;13.50;6.38;;;;;;;-145.68;47.69;73032.09;10391585;28;20196;-71
2023/10/03 01:57:33;;;;;;;12.63;5.90;;;;;;;-145.68;47.74;73038.09;10408604;28;20255;-73
2023/10/03 02:02:33;;;;;;;21.35;5.40;;;;;;;-145.68;47.05;73016.13;10390845;28;20274;-72
2023/10/03 02:07:34;;;;;;;11.32;5.47;;;;;;;-145.68;47.23;73008.13;10389816;28;20549;-72
2023/10/03 02:12:35;;;;;;;13.75;5.90;;;;;;;-145.68;47.60;73028.09;10407767;28;20189;-73
2023/10/03 02:17:35;;;;;;;12.20;5.78;;;;;;;-145.68;48.03;73022.13;10386947;28;20220;-72
2023/10/03 02:22:38;;;;;;;13.57;6.05;;;;;;;-145.68;48.25;73032.09;10389530;28;20266;-72
2023/10/03 02:27:39;;;;;;;11.45;5.82;;;;;;;-145.68;48.60;73030.09;10388228;28;20279;-72
2023/10/03 02:32:41;;;;;;;10.32;5.15;;;;;;;-145.68;48.75;73030.09;10389722;28;20192;-73
2023/10/03 02:37:41;;;;;;;14.52;5.63;;;;;;;-145.68;48.68;73024.13;10406501;28;20192;-73
2023/10/03 02:42:42;;;;;;;12.95;5.95;;;;;;;-145.68;48.83;73026.09;10388519;28;20537;-73
2023/10/03 02:47:44;;;;;;;14.00;6.68;;;;;;;-145.68;48.82;73024.13;10388433;28;20232;-73
2023/10/03 02:52:45;;;;;;;13.02;6.70;;;;;;;-145.68;48.35;73004.13;10388665;28;20183;-73
2023/10/03 02:57:46;;;;;;;16.08;7.70;;;;;;;-145.68;47.87;72974.16;10405792;28;20227;-72
2023/10/03 03:02:47;;;;;;;17.77;7.30;;;;;;;-145.68;47.72;72986.13;10388708;28;20215;-73
2023/10/03 03:07:58;;;;;;;16.27;6.63;;;;;;;-145.68;47.58;72966.16;10387112;28;20188;-73
2023/10/03 03:13:01;;;;;;;13.57;6.63;;;;;;;-145.68;47.60;72968.16;10387631;28;20181;-73
2023/10/03 03:18:02;;;;;;;18.42;8.25;;;;;;;-145.68;47.59;72970.16;10387720;28;20271;-72
2023/10/03 03:23:03;;;;;;;19.65;9.05;;;;;;;-145.68;47.14;72946.16;10387202;28;21315;-73
2023/10/03 03:28:13;;;;;;;19.08;8.77;;;;;;;-145.68;47.11;72960.16;10387048;28;20192;-72
2023/10/03 03:33:14;;;;;;;18.65;7.68;;;;;;;-145.68;47.12;72948.16;10387471;28;20209;-72
2023/10/03 03:38:15;;;;;;;21.45;9.30;;;;;;;-145.68;46.97;72936.19;10403925;28;20335;-72
2023/10/03 03:43:16;;;;;;;21.70;9.25;;;;;;;-145.68;47.14;72936.19;10404734;28;20219;-72
2023/10/03 03:48:19;;;;;;;23.48;9.90;;;;;;;-145.68;47.42;72926.19;10404287;28;20658;-72
2023/10/03 03:53:19;;;;;;;25.80;10.43;;;;;;;-145.68;47.01;72908.19;10403254;28;20181;-72
2023/10/03 03:58:19;;;;;;;23.23;10.90;;;;;;;-145.68;47.19;72938.16;10402831;28;20671;-73
2023/10/03 04:03:20;;;;;;;22.73;10.00;;;;;;;-145.68;47.70;72932.19;10408927;28;20248;-73
2023/10/03 04:08:21;;;;;;;21.88;10.18;;;;;;;-145.68;47.79;72940.16;10409249;28;20199;-72
2023/10/03 04:13:21;;;;;;;25.50;10.65;;;;;;;-145.68;48.27;72960.16;10410974;28;20193;-72
2023/10/03 04:18:22;;;;;;;27.33;10.88;;;;;;;-145.68;48.66;72964.16;10409796;28;20189;-72
2023/10/03 04:23:23;;;;;;;26.83;11.60;;;;;;;-145.68;48.70;72966.16;10379983;28;20296;-72
2023/10/03 04:28:23;;;;;;;26.92;11.02;;;;;;;-145.68;49.07;72980.13;10408851;28;20188;-72
2023/10/03 04:33:24;;;;;;;25.98;10.68;;;;;;;-145.68;49.57;72984.13;10399296;28;20184;-72
2023/10/03 04:38:25;;;;;;;25.92;9.20;;;;;;;-145.68;49.50;72964.16;10412290;28;20192;-72
2023/10/03 04:43:31;;;;;;;28.25;11.45;;;;;;;-145.68;49.61;72964.16;10407666;28;20212;-73
2023/10/03 04:48:31;;;;;;;21.67;10.73;;;;;;;-145.68;49.65;72940.16;10411787;28;20569;-72
2023/10/03 04:53:31;;;;;;;25.38;12.05;;;;;;;-145.68;49.63;72954.16;10419823;28;20181;-72
2023/10/03 04:58:32;;;;;;;28.55;10.73;;;;;;;-145.68;50.06;72946.16;10401533;28;20188;-72
2023/10/03 05:03:32;;;;;;;26.13;11.02;;;;;;;-145.68;50.37;72944.16;10422054;28;20235;-73
2023/10/03 05:08:32;;;;;;;30.58;10.75;;;;;;;-145.68;50.65;72948.16;10415417;28;20196;-72
2023/10/03 05:13:33;;;;;;;27.77;11.10;;;;;;;-145.68;50.69;72952.16;10418076;28;20223;-73
2023/10/03 05:18:34;;;;;;;25.48;10.95;;;;;;;-145.68;51.01;72976.16;10411943;28;20561;-73
2023/10/03 05:23:34;;;;;;;25.33;11.00;;;;;;;-145.68;51.01;72986.13;10410257;28;20231;-72
2023/10/03 05:28:38;;;;;;;22.67;10.98;;;;;;;-145.68;51.19;72984.13;10409307;28;20197;-73
2023/10/03 05:33:39;;;;;;;20.60;9.85;;;;;;;-145.68;51.16;72968.16;10409387;28;20669;-72
2023/10/03 05:38:40;;;;;;;23.52;10.70;;;;;;;-145.68;51.33;72960.16;10409225;28;20242;-72
2023/10/03 05:43:40;;;;;;;22.60;10.77;;;;;;;-145.68;51.28;72940.16;10409124;28;20315;-73
2023/10/03 05:48:43;;;;;;;22.15;10.00;;;;;;;-145.68;51.59;72934.19;10407969;28;20236;-72
2023/10/03 05:53:43;;;;;;;23.77;9.35;;;;;;;-145.68;51.64;72922.19;10390430;28;20185;-73
2023/10/03 05:58:43;;;;;;;27.92;8.70;;;;;;;-145.68;51.73;72912.19;10408627;28;20660;-72
2023/10/03 06:03:44;;;;;;;27.00;12.23;;;;;;;-145.68;51.76;72894.22;10407759;28;20217;-72
2023/10/03 06:08:48;;;;;;;26.42;13.00;;;;;;;-145.68;51.76;72866.22;10408012;28;20196;-72
2023/10/03 06:13:49;;;;;;;27.10;10.70;;;;;;;-145.68;51.44;72838.25;10390922;28;20188;-73
2023/10/03 06:18:50;;;;;;;25.60;10.57;;;;;;;-145.68;51.38;72802.28;10407034;28;20893;-72
2023/10/03 06:23:51;;;;;;;30.25;13.88;;;;;;;-145.68;50.93;72780.28;10407763;28;20309;-73
2023/10/03 06:28:51;;;;;;;25.70;10.10;;;;;;;-145.68;50.08;72736.31;10405357;28;20279;-73
2023/10/03 06:33:52;;;;;;;30.98;13.52;;;;;;;-145.68;49.75;72686.38;10406910;28;20195;-72
2023/10/03 06:38:53;;;;;;;27.05;12.50;;;;;;;-145.68;49.24;72654.41;10406885;28;20203;-73
2023/10/03 06:43:53;;;;;;;31.58;13.70;;;;;;;-145.68;48.80;72612.44;10406117;28;20308;-73
2023/10/03 06:48:54;;;;;;;27.40;13.05;;;;;;;-145.68;48.30;72578.47;10406172;28;20236;-73
2023/10/03 06:53:54;;;;;;;28.77;12.30;;;;;;;-145.68;48.67;72596.44;10406568;28;20601;-73
2023/10/03 06:58:55;;;;;;;26.77;12.50;;;;;;;-145.68;48.87;72600.44;10405575;28;20243;-73
2023/10/03 07:03:56;;;;;;;26.80;12.25;;;;;;;-145.68;49.23;72614.44;10406024;28;20287;-73
2023/10/03 07:08:58;;;;;;;25.77;10.80;;;;;;;-145.68;50.13;72648.41;10387788;28;20246;-72
2023/10/03 07:13:59;;;;;;;22.10;10.05;;;;;;;-145.68;48.65;72556.47;10404817;28;20194;-73
2023/10/03 07:18:59;;;;;;;24.15;12.35;;;;;;;-145.68;47.68;72502.53;10405108;28;20189;-73
2023/10/03 07:24:00;;;;;;;27.90;14.07;;;;;;;-145.68;47.24;72456.56;10405507;28;20213;-72
2023/10/03 07:29:02;;;;;;;25.95;12.57;;;;;;;-145.68;46.77;72432.59;10408733;28;20671;-73
2023/10/03 07:34:03;;;;;;;29.98;15.32;;;;;;;-145.68;47.05;72454.56;10401180;28;20664;-73
2023/10/03 07:39:03;;;;;;;30.52;13.35;;;;;;;-145.68;47.19;72430.59;10404314;28;20331;-73
2023/10/03 07:44:04;;;;;;;30.77;14.68;;;;;;;-145.68;46.61;72410.59;10404149;28;20212;-72
2023/10/03 07:49:07;;;;;;;32.50;14.20;;;;;;;-145.68;46.39;72400.59;10404395;28;20339;-72
2023/10/03 07:54:08;;;;;;;30.42;13.75;;;;;;;-145.68;45.83;72334.66;10404662;28;20469;-72
2023/10/03 07:59:08;;;;;;;29.23;13.90;;;;;;;-145.68;45.10;72294.72;10399717;28;20594;-72
2023/10/03 08:04:12;;;;;;;31.75;14.65;;;;;;;-145.68;44.78;72264.72;10404790;28;20714;-73
2023/10/03 08:09:13;;;;;;;29.73;14.15;;;;;;;-145.68;43.83;72252.75;10400455;28;20631;-73
2023/10/03 08:14:16;;;;;;;26.70;12.95;;;;;;;-145.68;43.03;72188.81;10403759;28;20532;-72
2023/10/03 08:19:25;;;;;;;25.70;12.95;;;;;;;-145.68;42.72;72208.78;10399866;28;20272;-73
2023/10/03 08:24:28;;;;;;;24.48;13.15;;;;;;;-145.68;42.85;72176.81;10407117;28;20211;-72
2023/10/03 08:29:28;;;;;;;25.40;12.38;;;;;;;-145.68;41.67;72090.91;10391728;28;20192;-72
2023/10/03 08:34:30;;;;;;;22.52;12.00;;;;;;;-145.68;41.57;72102.88;10411931;28;20189;-73
2023/10/03 08:39:32;;;;;;;19.20;10.05;;;;;;;-145.68;41.92;72176.81;10409204;28;20204;-72
2023/10/03 08:44:36;;;;;;;25.10;11.60;;;;;;;-145.68;42.67;72188.81;10409927;28;20585;-73
2023/10/03 08:49:39;;;;;;;27.33;11.05;;;;;;;-145.68;40.86;72070.91;10391386;28;20256;-72
2023/10/03 08:54:41;;;;;;;23.67;11.23;;;;;;;-145.68;39.97;72028.94;10411105;28;20649;-73
2023/10/03 08:59:42;;;;;;;20.90;10.95;;;;;;;-145.68;39.74;71987.00;10409083;28;20574;-73
2023/10/03 09:04:42;;;;;;;20.58;9.38;;;;;;;-145.68;39.32;72012.97;10411027;28;20223;-73
2023/10/03 09:09:45;;;;;;;19.52;10.75;;;;;;;-145.68;39.89;72074.91;10409012;28;20184;-73
2023/10/03 09:14:53;;;;;;;18.45;10.00;;;;;;;-145.68;39.09;71941.03;10409722;28;20199;-73
2023/10/03 09:19:53;;;;;;;20.63;9.88;;;;;;;-145.68;38.37;71975.00;10408529;28;20216;-73
2023/10/03 09:24:56;;;;;;;16.92;8.80;;;;;;;-145.68;39.24;72032.94;10409441;28;20660;-73
2023/10/03 09:29:58;;;;;;;17.02;9.55;;;;;;;-145.68;39.64;72020.97;10407809;28;20193;-73
2023/10/03 09:35:09;;;;;;;20.42;9.63;;;;;;;-145.68;40.49;72062.91;10409087;28;20707;-73
2023/10/03 09:40:16;;;;;;;17.98;9.52;;;;;;;-145.68;40.18;72036.94;10407629;28;20288;-73
2023/10/03 09:45:29;;;;;;;18.33;9.25;;;;;;;-145.68;40.09;71969.00;10407186;28;20634;-72
2023/10/03 09:50:32;;;;;;;19.60;8.35;;;;;;;-145.68;39.77;71975.00;10407814;28;20263;-73
2023/10/03 09:55:46;;;;;;;19.38;9.10;;;;;;;-145.68;40.63;72016.97;10389328;28;20259;-73
2023/10/03 10:00:53;;;;;;;18.60;9.35;;;;;;;-145.68;40.98;72026.97;10408329;28;20188;-73
2023/10/03 10:06:14;;;;;;;19.80;9.10;;;;;;;-145.68;40.62;71973.00;10390587;28;20216;-72
2023/10/03 10:11:15;;;;;;;14.73;8.30;;;;;;;-145.68;39.44;71841.13;10389526;28;20189;-73
2023/10/03 10:16:20;;;;;;;16.92;9.50;;;;;;;-145.68;39.74;71873.09;10406178;28;20195;-72
2023/10/03 10:21:26;;;;;;;16.50;9.13;;;;;;;-145.68;40.68;71921.06;10407245;28;20184;-73
2023/10/03 10:26:27;;;;;;;15.98;9.18;;;;;;;-145.68;40.51;71897.09;10405872;28;20692;-73
2023/10/03 10:31:44;;;;;;;19.73;9.55;;;;;;;-145.68;41.36;71975.00;10407101;28;20643;-73
2023/10/03 10:37:09;;;;;;;17.23;8.65;;;;;;;-145.68;40.15;71833.16;10405463;28;20199;-73
2023/10/03 10:42:10;;;;;;;14.95;8.15;;;;;;;-145.68;39.03;71771.22;10404468;28;20193;-73
2023/10/03 10:47:10;;;;;;;15.13;7.38;;;;;;;-145.68;38.78;71753.22;10404341;28;20212;-72
2023/10/03 10:52:12;;;;;;;18.42;9.35;;;;;;;-145.68;38.25;71661.31;10388412;28;20192;-73
2023/10/03 10:57:18;;;;;;;16.02;8.10;;;;;;;-145.68;37.44;71631.34;10387499;28;20205;-73
2023/10/03 11:02:19;;;;;;;15.10;8.70;;;;;;;-145.68;37.28;71601.41;10406336;28;20226;-73
2023/10/03 11:07:25;;;;;;;21.48;10.43;;;;;;;-145.68;38.73;71833.16;10371679;28;20727;-70
2023/10/03 11:12:33;;;;;;;18.65;10.02;;;;;;;-145.68;39.06;71785.19;10533149;27;20560;-68
2023/10/03 11:17:33;;;;;;;18.13;9.20;;;;;;;-145.68;40.68;71877.09;10528895;28;20272;-69
2023/10/03 11:22:37;;;;;;;19.52;11.05;;;;;;;-145.68;39.97;71797.19;10528995;28;20541;-68
2023/10/03 11:27:37;;;;;;;21.52;10.35;;;;;;;-145.68;39.06;71661.31;10531753;28;20229;-70
2023/10/03 11:32:37;;;;;;;18.00;8.85;;;;;;;-145.68;38.74;71705.28;10529445;28;20732;-69
2023/10/03 11:37:44;;;;;;;17.70;9.18;;;;;;;-145.68;39.14;71657.34;10528096;28;20699;-69
2023/10/03 11:42:48;;;;;;;21.17;10.60;;;;;;;-145.68;38.91;71593.41;10527389;28;20190;-69
2023/10/03 11:48:17;;;;;;;23.60;10.70;;;;;;;-145.68;39.67;71693.28;10533138;28;20594;-69
2023/10/03 11:53:18;;;;;;;19.52;10.00;;;;;;;-145.68;40.71;71795.19;10525927;28;20251;-69
2023/10/03 11:58:19;;;;;;;18.30;9.70;;;;;;;-145.68;40.42;71749.22;10527176;28;20632;-69
2023/10/03 12:03:20;;;;;;;17.05;8.93;;;;;;;-145.68;41.41;71797.19;10527375;28;20205;-68
2023/10/03 12:08:22;;;;;;;17.85;9.40;;;;;;;-145.68;42.25;71883.09;10532129;28;21581;-69
2023/10/03 12:13:22;;;;;;;19.65;9.50;;;;;;;-145.68;41.96;71825.16;10527031;28;20645;-68
2023/10/03 12:18:22;;;;;;;19.98;9.95;;;;;;;-145.68;42.28;71865.13;10526531;28;20214;-69
2023/10/03 12:23:23;;;;;;;16.85;9.43;;;;;;;-145.68;42.38;71865.13;10501828;28;20199;-68
2023/10/03 12:28:23;;;;;;;15.70;6.70;;;;;;;-145.68;41.97;71869.13;10503568;28;20720;-69
2023/10/03 12:33:24;;;;;;;16.95;6.88;;;;;;;-145.68;42.03;71835.16;10498345;28;20617;-68
2023/10/03 12:38:25;;;;;;;18.15;9.13;;;;;;;-145.68;42.45;71811.16;10498158;28;20268;-67
2023/10/03 12:43:26;;;;;;;19.13;8.40;;;;;;;-145.68;41.46;71753.22;10501416;28;20190;-67
2023/10/03 12:48:26;;;;;;;18.73;8.98;;;;;;;-145.68;40.86;71737.25;10499851;28;20227;-67
2023/10/03 12:53:35;;;;;;;12.77;6.07;;;;;;;-145.68;40.30;71695.28;10497419;28;20219;-67
2023/10/03 12:58:36;;;;;;;16.73;7.13;;;;;;;-145.68;40.53;71745.25;10497359;28;20241;-67
2023/10/03 13:03:39;;;;;;;18.00;7.85;;;;;;;-145.68;40.34;71763.22;10502890;28;20191;-67
2023/10/03 13:08:42;;;;;;;10.95;6.45;;;;;;;-145.68;39.64;71757.22;10496613;28;20238;-66
2023/10/03 13:13:43;;;;;;;10.25;6.00;;;;;;;-145.68;39.72;71761.22;10496789;28;20760;-68
2023/10/03 13:18:44;;;;;;;12.25;6.05;;;;;;;-145.68;40.22;71841.13;10495864;28;20195;-68
2023/10/03 13:23:46;;;;;;;11.52;5.93;;;;;;;-145.68;40.03;71777.22;10501586;28;20199;-68
2023/10/03 13:28:47;;;;;;;12.15;5.97;;;;;;;-145.68;40.42;71781.19;10496264;28;20601;-68
2023/10/03 13:33:49;;;;;;;10.65;5.90;;;;;;;-145.68;40.24;71833.16;10494815;28;20206;-69
2023/10/03 13:38:50;;;;;;;12.95;6.15;;;;;;;-145.68;40.23;71895.09;10495650;28;20262;-68
2023/10/03 13:43:51;;;;;;;10.48;5.55;;;;;;;-145.68;40.10;71889.09;10500815;28;20919;-68
2023/10/03 13:48:53;;;;;;;17.30;5.95;;;;;;;-145.68;40.74;71903.06;10495068;28;20230;-68
2023/10/03 13:53:53;;;;;;;15.77;6.50;;;;;;;-145.68;40.73;71889.09;10494757;28;20213;-68
2023/10/03 13:58:53;;;;;;;11.25;6.80;;;;;;;-145.68;41.16;71913.06;10494344;28;20189;-68
2023/10/03 14:03:54;;;;;;;11.30;6.45;;;;;;;-145.68;41.37;71921.06;10500127;28;20568;-69
2023/10/03 14:08:54;;;;;;;14.95;6.55;;;;;;;-145.68;41.86;71985.00;10493960;28;20227;-68
2023/10/03 14:13:55;;;;;;;14.35;6.72;;;;;;;-145.68;42.36;72006.97;10494190;28;20199;-68
2023/10/03 14:18:57;;;;;;;11.93;6.97;;;;;;;-145.68;42.78;72040.94;10499485;28;20187;-68
2023/10/03 14:23:57;;;;;;;12.25;6.70;;;;;;;-145.68;43.03;72056.94;10493759;28;20207;-68
2023/10/03 14:28:58;;;;;;;12.38;6.72;;;;;;;-145.68;43.04;72012.97;10493400;28;20211;-68
2023/10/03 14:33:58;;;;;;;14.48;7.07;;;;;;;-145.68;43.39;72032.94;10493129;28;20302;-68
2023/10/03 14:38:59;;;;;;;12.13;7.18;;;;;;;-145.68;43.27;72020.97;10499281;28;20664;-68
2023/10/03 14:43:59;;;;;;;12.02;6.55;;;;;;;-145.68;43.17;72030.94;10492943;28;20222;-68
2023/10/03 14:49:00;;;;;;;17.02;6.75;;;;;;;-145.68;43.90;72060.94;10492807;28;20231;-68
2023/10/03 14:54:00;;;;;;;14.63;7.70;;;;;;;-145.68;44.07;72080.91;10492609;28;20372;-68
2023/10/03 14:59:00;;;;;;;12.10;6.35;;;;;;;-145.68;44.19;72080.91;10498194;28;20191;-68
2023/10/03 15:04:01;;;;;;;16.45;7.05;;;;;;;-145.68;44.46;72076.91;10497845;28;20219;-67
2023/10/03 15:09:01;;;;;;;11.65;6.38;;;;;;;-145.68;44.14;72070.91;10491220;28;20242;-67
2023/10/03 15:14:02;;;;;;;13.38;6.78;;;;;;;-145.68;44.52;72098.88;10487654;28;20273;-68
2023/10/03 15:19:05;;;;;;;10.95;7.15;;;;;;;-145.68;44.44;72086.91;10493450;28;20187;-67
2023/10/03 15:24:05;;;;;;;15.30;7.45;;;;;;;-145.68;44.38;72068.91;10485537;28;20212;-67
2023/10/03 15:29:06;;;;;;;12.38;7.97;;;;;;;-145.68;44.20;72068.91;10492990;28;20222;-67
2023/10/03 15:34:06;;;;;;;16.80;7.53;;;;;;;-145.68;44.32;72052.94;10497336;28;20214;-69
2023/10/03 15:39:08;;;;;;;20.40;12.40;;;;;;;-145.68;44.60;72054.94;10496996;28;20657;-69
2023/10/03 15:44:09;;;;;;;180.13;150.13;;;;;;;-145.68;45.00;72094.88;10491333;28;20208;-69
2023/10/03 15:49:09;;;;;;;158.27;109.55;;;;;;;-145.68;45.13;72104.88;10497270;28;20276;-68
2023/10/03 15:54:11;;;;;;;311.58;245.15;;;;;;;-145.68;46.19;72134.84;10497092;28;20269;-67
2023/10/03 15:59:13;;;;;;;37.03;25.25;;;;;;;-145.68;46.41;72150.84;10498819;28;20211;-67
2023/10/03 16:04:13;;;;;;;20.33;15.48;;;;;;;-145.68;46.92;72190.81;10497796;28;20317;-68
2023/10/03 16:09:14;;;;;;;12.60;6.75;;;;;;;-145.68;47.58;72236.75;10504506;28;20322;-68
2023/10/03 16:14:16;;;;;;;23.38;13.73;;;;;;;-145.68;52.61;72372.63;10504512;28;20280;-68
2023/10/03 16:19:18;;;;;;;9.65;5.90;;;;;;;-145.68;57.78;72556.47;10498711;28;20191;-67
2023/10/03 16:24:19;;;;;;;12.32;5.93;;;;;;;-145.68;62.96;72656.41;10497316;28;20207;-68
2023/10/03 16:29:21;;;;;;;17.17;5.88;;;;;;;-145.68;66.76;72682.38;10503462;28;20219;-68
2023/10/03 16:34:21;;;;;;;9.63;5.47;;;;;;;-145.68;70.71;72692.38;10503270;28;20719;-67
2023/10/03 16:39:24;;;;;;;11.20;6.07;;;;;;;-145.68;74.06;72720.34;10497885;28;20202;-68
2023/10/03 16:44:24;;;;;;;10.35;6.03;;;;;;;-145.68;80.21;72770.31;10499155;28;20222;-68
2023/10/03 16:49:25;;;;;;;8.90;5.65;;;;;;;-145.68;79.25;72768.31;10502226;28;20223;-67
2023/10/03 16:54:26;;;;;;;9.80;5.63;;;;;;;-145.68;79.60;72764.31;10502208;28;20207;-66
2023/10/03 16:59:27;;;;;;;9.73;5.82;;;;;;;-145.68;76.18;72814.28;10497136;28;20192;-67
2023/10/03 17:04:27;;;;;;;13.30;3.85;;;;;;;-145.68;100.00;73207.97;10499449;28;20680;-67
2023/10/03 17:09:27;;;;;;;9.18;3.20;;;;;;;-145.68;100.00;73293.94;10494791;28;20720;-69
2023/10/03 17:14:29;;;;;;;10.80;3.10;;;;;;;-145.68;100.00;73337.91;10495759;28;20593;-66
2023/10/03 17:19:29;;;;;;;8.70;2.92;;;;;;;-145.68;100.00;73369.88;10495544;28;20199;-68
2023/10/03 17:24:29;;;;;;;4.10;2.78;;;;;;;-145.68;100.00;73373.88;10494919;28;20679;-68
2023/10/03 17:29:31;;;;;;;6.10;2.83;;;;;;;-145.68;100.00;73375.88;10494094;28;20223;-67
2023/10/03 17:34:34;;;;;;;7.68;3.58;;;;;;;-145.68;100.00;73379.88;10494187;28;20701;-67
2023/10/03 17:39:36;;;;;;;7.25;3.92;;;;;;;-145.68;100.00;73397.84;10496481;28;20179;-67
2023/10/03 17:44:36;;;;;;;7.20;3.50;;;;;;;-145.68;100.00;73431.84;10493721;28;20222;-68
2023/10/03 17:49:36;;;;;;;5.25;1.80;;;;;;;-145.68;100.00;73505.78;10500069;28;20226;-69
2023/10/03 17:54:37;;;;;;;3.00;1.60;;;;;;;-145.68;100.00;73569.75;10494479;28;20573;-67
2023/10/03 17:59:37;;;;;;;4.75;1.98;;;;;;;-145.68;100.00;73583.75;10493865;28;20189;-67
2023/10/03 18:04:38;;;;;;;4.22;2.10;;;;;;;-145.68;100.00;73613.72;10493828;28;20211;-68
2023/10/03 18:09:39;;;;;;;4.45;2.42;;;;;;;-145.68;100.00;73615.72;10498855;28;20248;-67
2023/10/03 18:14:39;;;;;;;5.30;2.30;;;;;;;-145.68;100.00;73627.72;10493595;28;20211;-68
2023/10/03 18:19:40;;;;;;;5.43;2.40;;;;;;;-145.68;100.00;73613.72;10492765;28;20594;-68
2023/10/03 18:24:40;;;;;;;5.63;2.60;;;;;;;-145.68;100.00;73631.72;10491088;28;20271;-69
2023/10/03 18:29:40;;;;;;;3.10;2.38;;;;;;;-145.68;100.00;73633.72;10503829;28;20267;-69
2023/10/03 18:34:41;;;;;;;9.23;2.42;;;;;;;-145.68;100.00;73627.72;10491550;28;20715;-67
2023/10/03 18:39:41;;;;;;;4.75;2.80;;;;;;;-145.68;100.00;73637.72;10492300;28;20278;-68
2023/10/03 18:44:42;;;;;;;5.90;2.80;;;;;;;-145.68;100.00;73635.72;10496994;28;20218;-68
2023/10/03 18:49:42;;;;;;;4.97;2.65;;;;;;;-145.68;100.00;73649.72;10492898;28;20214;-69
2023/10/03 18:54:42;;;;;;;5.43;2.40;;;;;;;-145.68;100.00;73655.69;10492428;28;20223;-70
2023/10/03 18:59:44;;;;;;;4.35;2.55;;;;;;;-145.68;100.00;73669.69;10492265;28;20199;-70
2023/10/03 19:04:44;;;;;;;3.45;2.60;;;;;;;-145.68;100.00;73679.69;10496839;28;20910;-69
2023/10/03 19:09:46;;;;;;;4.72;2.67;;;;;;;-145.68;100.00;73671.69;10492017;28;20234;-69
2023/10/03 19:14:46;;;;;;;5.60;2.83;;;;;;;-145.68;100.00;73675.69;10492043;28;20222;-69
2023/10/03 19:19:49;;;;;;;4.82;2.17;;;;;;;-145.68;100.00;73683.69;10491692;28;20199;-69
2023/10/03 19:24:51;;;;;;;4.55;2.58;;;;;;;-145.68;100.00;73691.69;10497326;28;20219;-67
2023/10/03 19:29:52;;;;;;;5.50;2.60;;;;;;;-145.68;100.00;73693.69;10492294;28;20222;-68
2023/10/03 19:34:52;;;;;;;3.85;2.80;;;;;;;-145.68;100.00;73687.69;10499742;28;20604;-69
2023/10/03 19:39:52;;;;;;;3.40;2.60;;;;;;;-145.68;100.00;73691.69;10499994;28;20206;-70
2023/10/03 19:44:53;;;;;;;5.40;2.63;;;;;;;-145.68;100.00;73691.69;10504898;28;20294;-69
2023/10/03 19:49:53;;;;;;;6.32;3.13;;;;;;;-145.68;100.00;73683.69;10498632;28;20219;-69
2023/10/03 19:54:54;;;;;;;5.32;2.95;;;;;;;-145.68;100.00;73671.69;10499033;28;20688;-69
2023/10/03 19:59:54;;;;;;;3.28;2.90;;;;;;;-145.68;100.00;73685.69;10499112;28;20188;-70
2023/10/03 20:04:55;;;;;;;4.63;3.78;;;;;;;-145.68;100.00;73693.69;10498647;28;20253;-70
2023/10/03 20:09:55;;;;;;;3.42;2.03;;;;;;;-145.68;100.00;73811.63;10498276;28;20233;-67
2023/10/03 20:14:56;;;;;;;3.97;1.92;;;;;;;-145.68;100.00;73927.56;10498413;28;20225;-69
2023/10/03 20:19:56;;;;;;;3.85;2.58;;;;;;;-145.68;100.00;74037.50;10493880;28;20183;-68
2023/10/03 20:24:57;;;;;;;4.15;2.38;;;;;;;-145.68;100.00;74067.50;10498051;28;20685;-68
2023/10/03 20:29:57;;;;;;;3.15;1.90;;;;;;;-145.68;100.00;74087.47;10496860;28;20233;-66
2023/10/03 20:34:58;;;;;;;5.07;2.83;;;;;;;-145.68;100.00;74101.47;10502700;28;20566;-68
2023/10/03 20:39:58;;;;;;;5.03;3.20;;;;;;;-145.68;100.00;74109.47;10497385;28;20195;-68
2023/10/03 20:44:59;;;;;;;4.25;2.65;;;;;;;-145.68;100.00;74143.47;10496986;28;20286;-69
2023/10/03 20:50:00;;;;;;;5.78;3.00;;;;;;;-145.68;100.00;74165.44;10497468;28;20215;-69
2023/10/03 20:55:01;;;;;;;6.07;2.60;;;;;;;-145.68;100.00;74193.44;10500643;28;20207;-69
2023/10/03 21:00:03;;;;;;;5.88;3.63;;;;;;;-145.68;100.00;74231.41;10502877;28;20187;-69
2023/10/03 21:05:03;;;;;;;5.65;4.50;;;;;;;-145.68;100.00;74247.41;10494390;28;20688;-68
2023/10/03 21:10:06;;;;;;;5.10;3.88;;;;;;;-145.68;100.00;74267.41;10496877;28;20235;-69
2023/10/03 21:15:07;;;;;;;6.47;3.05;;;;;;;-145.68;100.00;74281.41;10502012;28;20211;-69
2023/10/03 21:20:11;;;;;;;3.83;2.60;;;;;;;-145.68;100.00;74291.41;10496618;28;20278;-69
2023/10/03 21:25:12;;;;;;;8.25;3.15;;;;;;;-145.68;100.00;74299.38;10501877;28;20215;-69
2023/10/03 21:30:12;;;;;;;6.80;2.60;;;;;;;-145.68;100.00;74317.38;10496033;28;20211;-70
2023/10/03 21:35:17;;;;;;;9.60;2.83;;;;;;;-145.68;100.00;74313.38;10501394;28;20210;-70
2023/10/03 21:40:18;;;;;;;7.00;2.88;;;;;;;-145.68;100.00;74339.38;10495755;28;20271;-69
2023/10/03 21:45:18;;;;;;;6.60;2.90;;;;;;;-145.68;100.00;74359.38;10495597;28;20211;-69
2023/10/03 21:50:19;;;;;;;4.07;2.17;;;;;;;-145.68;100.00;74387.34;10497548;28;20207;-69
2023/10/03 21:55:20;;;;;;;8.43;2.50;;;;;;;-145.68;100.00;74401.34;10497379;28;20215;-70
2023/10/03 22:00:35;;;;;;;6.30;2.83;;;;;;;-145.68;100.00;74405.34;10495245;28;21546;-70
2023/10/03 22:05:35;;;;;;;11.13;2.72;;;;;;;-145.68;100.00;74415.34;10494757;28;20238;-69
2023/10/03 22:10:36;;;;;;;7.55;3.15;;;;;;;-145.68;100.00;74425.34;10499710;28;20227;-69
2023/10/03 22:15:37;;;;;;;3.80;3.00;;;;;;;-145.68;100.00;74419.34;10494202;28;20234;-69
2023/10/03 22:20:37;;;;;;;3.97;2.63;;;;;;;-145.68;100.00;74421.34;10494348;28;20182;-69
2023/10/03 22:25:38;;;;;;;4.00;2.58;;;;;;;-145.68;100.00;74437.34;10493833;28;20687;-67
2023/10/03 22:30:40;;;;;;;7.72;3.22;;;;;;;-145.68;100.00;74435.34;10499053;28;20699;-68